sensor_id;sensor_type;location;lat;lon;timestamp;pressure;altitude;pressure_sealevel;temperature;humidity
48035;BME280;33812;46.480;6.834;2023-02-03T00:01:13;95170.47;;;21.30;36.06
48035;BME280;33812;46.480;6.834;2023-02-03T00:05:16;95173.66;;;21.29;36.16
48035;BME280;33812;46.480;6.834;2023-02-03T00:09:19;95164.56;;;21.28;35.81
48035;BME280;33812;46.480;6.834;2023-02-03T00:13:21;95167.72;;;21.30;35.93
48035;BME280;33812;46.480;6.834;2023-02-03T00:17:26;95161.78;;;21.28;35.89
48035;BME280;33812;46.480;6.834;2023-02-03T00:21:28;95169.69;;;21.30;35.77
48035;BME280;33812;46.480;6.834;2023-02-03T00:25:30;95168.53;;;21.27;35.74
48035;BME280;33812;46.480;6.834;2023-02-03T00:29:32;95163.00;;;21.23;35.72
48035;BME280;33812;46.480;6.834;2023-02-03T00:33:36;95161.78;;;21.28;35.63
48035;BME280;33812;46.480;6.834;2023-02-03T00:37:38;95159.81;;;21.29;35.53
48035;BME280;33812;46.480;6.834;2023-02-03T00:41:40;95164.56;;;21.28;35.55
48035;BME280;33812;46.480;6.834;2023-02-03T00:45:43;95160.22;;;21.27;35.45
48035;BME280;33812;46.480;6.834;2023-02-03T00:49:46;95158.63;;;21.26;35.49
48035;BME280;33812;46.480;6.834;2023-02-03T00:53:50;95162.63;;;21.21;35.47
48035;BME280;33812;46.480;6.834;2023-02-03T00:57:53;95156.28;;;21.24;35.50
48035;BME280;33812;46.480;6.834;2023-02-03T01:01:55;95158.28;;;21.24;35.32
48035;BME280;33812;46.480;6.834;2023-02-03T01:06:09;95155.91;;;21.22;35.36
48035;BME280;33812;46.480;6.834;2023-02-03T01:10:11;95151.16;;;21.23;35.39
48035;BME280;33812;46.480;6.834;2023-02-03T01:14:14;95152.34;;;21.22;34.92
48035;BME280;33812;46.480;6.834;2023-02-03T01:18:16;95151.94;;;21.23;35.19
48035;BME280;33812;46.480;6.834;2023-02-03T01:22:19;95150.38;;;21.22;35.02
48035;BME280;33812;46.480;6.834;2023-02-03T01:26:22;95154.34;;;21.21;34.97
48035;BME280;33812;46.480;6.834;2023-02-03T01:30:24;95157.50;;;21.20;34.94
48035;BME280;33812;46.480;6.834;2023-02-03T01:34:26;95172.13;;;21.20;34.77
48035;BME280;33812;46.480;6.834;2023-02-03T01:38:30;95176.44;;;21.21;34.78
48035;BME280;33812;46.480;6.834;2023-02-03T01:42:32;95190.69;;;21.20;34.98
48035;BME280;33812;46.480;6.834;2023-02-03T01:46:36;95182.78;;;21.18;34.77
48035;BME280;33812;46.480;6.834;2023-02-03T01:50:39;95199.38;;;21.18;34.77
48035;BME280;33812;46.480;6.834;2023-02-03T01:54:44;95203.72;;;21.19;34.78
48035;BME280;33812;46.480;6.834;2023-02-03T01:58:48;95191.50;;;21.17;34.61
48035;BME280;33812;46.480;6.834;2023-02-03T02:02:51;95206.47;;;21.19;34.63
48035;BME280;33812;46.480;6.834;2023-02-03T02:06:55;95199.38;;;21.18;34.97
48035;BME280;33812;46.480;6.834;2023-02-03T02:10:59;95188.31;;;21.18;34.68
48035;BME280;33812;46.480;6.834;2023-02-03T02:15:01;95173.34;;;21.12;34.67
48035;BME280;33812;46.480;6.834;2023-02-03T02:24:24;95176.47;;;21.14;34.62
48035;BME280;33812;46.480;6.834;2023-02-03T02:33:14;95182.41;;;21.12;34.61
48035;BME280;33812;46.480;6.834;2023-02-03T02:37:27;95188.34;;;21.14;34.59
48035;BME280;33812;46.480;6.834;2023-02-03T02:41:36;95189.13;;;21.15;34.63
48035;BME280;33812;46.480;6.834;2023-02-03T02:45:44;95195.44;;;21.16;34.45
48035;BME280;33812;46.480;6.834;2023-02-03T02:49:52;95191.50;;;21.13;34.36
48035;BME280;33812;46.480;6.834;2023-02-03T02:53:56;95199.00;;;21.12;34.32
48035;BME280;33812;46.480;6.834;2023-02-03T02:58:00;95196.25;;;21.12;34.70
48035;BME280;33812;46.480;6.834;2023-02-03T03:02:04;95184.38;;;21.12;34.46
48035;BME280;33812;46.480;6.834;2023-02-03T03:06:12;95175.34;;;21.11;34.29
48035;BME280;33812;46.480;6.834;2023-02-03T03:10:19;95179.25;;;21.14;34.15
48035;BME280;33812;46.480;6.834;2023-02-03T03:14:26;95174.13;;;21.12;34.23
48035;BME280;33812;46.480;6.834;2023-02-03T03:18:33;95172.97;;;21.10;34.13
48035;BME280;33812;46.480;6.834;2023-02-03T03:22:43;95174.16;;;21.09;34.34
48035;BME280;33812;46.480;6.834;2023-02-03T03:26:50;95185.19;;;21.09;34.14
48035;BME280;33812;46.480;6.834;2023-02-03T03:30:54;95178.13;;;21.08;34.19
48035;BME280;33812;46.480;6.834;2023-02-03T03:34:56;95169.03;;;21.07;34.05
48035;BME280;33812;46.480;6.834;2023-02-03T03:39:03;95170.63;;;21.08;34.02
48035;BME280;33812;46.480;6.834;2023-02-03T03:43:10;95165.47;;;21.07;33.89
48035;BME280;33812;46.480;6.834;2023-02-03T03:47:18;95165.47;;;21.07;33.91
48035;BME280;33812;46.480;6.834;2023-02-03T03:51:26;95173.00;;;21.06;34.05
48035;BME280;33812;46.480;6.834;2023-02-03T03:55:33;95175.75;;;21.06;34.03
48035;BME280;33812;46.480;6.834;2023-02-03T03:59:38;95174.97;;;21.06;33.94
48035;BME280;33812;46.480;6.834;2023-02-03T04:03:44;95167.06;;;21.04;33.87
48035;BME280;33812;46.480;6.834;2023-02-03T04:07:47;95180.50;;;21.06;33.84
48035;BME280;33812;46.480;6.834;2023-02-03T04:11:51;95166.28;;;21.04;33.97
48035;BME280;33812;46.480;6.834;2023-02-03T04:16:02;95159.19;;;21.02;33.80
48035;BME280;33812;46.480;6.834;2023-02-03T04:20:05;95153.66;;;21.02;34.00
48035;BME280;33812;46.480;6.834;2023-02-03T04:24:08;95143.41;;;21.03;33.88
48035;BME280;33812;46.480;6.834;2023-02-03T04:28:12;95149.31;;;21.01;33.69
48035;BME280;33812;46.480;6.834;2023-02-03T04:32:14;95146.16;;;21.03;33.77
48035;BME280;33812;46.480;6.834;2023-02-03T04:36:16;95134.31;;;21.02;33.78
48035;BME280;33812;46.480;6.834;2023-02-03T04:40:18;95131.13;;;21.04;33.86
48035;BME280;33812;46.480;6.834;2023-02-03T04:44:24;95122.88;;;21.00;33.82
48035;BME280;33812;46.480;6.834;2023-02-03T04:48:26;95111.03;;;21.00;33.49
48035;BME280;33812;46.480;6.834;2023-02-03T04:52:27;95100.75;;;21.00;33.66
48035;BME280;33812;46.480;6.834;2023-02-03T04:56:30;95104.72;;;20.99;33.45
48035;BME280;33812;46.480;6.834;2023-02-03T05:00:33;95094.44;;;21.00;33.40
48035;BME280;33812;46.480;6.834;2023-02-03T05:04:35;95089.69;;;21.00;33.71
48035;BME280;33812;46.480;6.834;2023-02-03T05:08:37;95096.78;;;21.01;33.86
48035;BME280;33812;46.480;6.834;2023-02-03T05:12:38;95093.66;;;20.99;33.79
48035;BME280;33812;46.480;6.834;2023-02-03T05:16:41;95109.06;;;21.00;33.60
48035;BME280;33812;46.480;6.834;2023-02-03T05:20:43;95116.53;;;21.00;33.84
48035;BME280;33812;46.480;6.834;2023-02-03T05:24:45;95120.09;;;21.00;33.64
48035;BME280;33812;46.480;6.834;2023-02-03T05:28:47;95119.31;;;20.96;33.86
48035;BME280;33812;46.480;6.834;2023-02-03T05:32:50;95126.84;;;20.96;33.79
48035;BME280;33812;46.480;6.834;2023-02-03T05:36:52;95108.28;;;20.96;33.59
48035;BME280;33812;46.480;6.834;2023-02-03T05:40:55;95108.28;;;20.96;33.75
48035;BME280;33812;46.480;6.834;2023-02-03T05:45:14;95099.22;;;20.96;33.72
48035;BME280;33812;46.480;6.834;2023-02-03T05:49:17;95099.63;;;20.94;33.94
48035;BME280;33812;46.480;6.834;2023-02-03T05:53:20;95102.38;;;20.94;33.82
48035;BME280;33812;46.480;6.834;2023-02-03T05:57:22;95106.72;;;20.95;34.01
48035;BME280;33812;46.480;6.834;2023-02-03T06:01:24;95112.25;;;20.95;34.21
48035;BME280;33812;46.480;6.834;2023-02-03T06:05:27;95122.88;;;20.97;35.31
48035;BME280;33812;46.480;6.834;2023-02-03T06:09:29;95123.28;;;20.99;35.47
48035;BME280;33812;46.480;6.834;2023-02-03T06:13:33;95129.59;;;20.99;35.47
48035;BME280;33812;46.480;6.834;2023-02-03T06:17:38;95138.66;;;21.00;35.39
48035;BME280;33812;46.480;6.834;2023-02-03T06:21:41;95150.91;;;20.99;36.11
48035;BME280;33812;46.480;6.834;2023-02-03T06:25:43;95163.53;;;21.00;35.88
48035;BME280;33812;46.480;6.834;2023-02-03T06:29:51;95171.81;;;21.00;35.26
48035;BME280;33812;46.480;6.834;2023-02-03T06:33:52;95172.63;;;21.00;35.47
48035;BME280;33812;46.480;6.834;2023-02-03T06:37:59;95170.25;;;20.99;35.83
48035;BME280;33812;46.480;6.834;2023-02-03T06:42:00;95161.16;;;20.98;35.61
48035;BME280;33812;46.480;6.834;2023-02-03T06:46:02;95167.09;;;20.97;36.28
48035;BME280;33812;46.480;6.834;2023-02-03T06:50:05;95167.00;;;19.85;28.70
48035;BME280;33812;46.480;6.834;2023-02-03T06:54:09;95167.44;;;17.80;28.80
48035;BME280;33812;46.480;6.834;2023-02-03T06:58:11;95171.31;;;19.79;29.61
48035;BME280;33812;46.480;6.834;2023-02-03T07:02:12;95178.38;;;20.35;29.69
48035;BME280;33812;46.480;6.834;2023-02-03T07:06:14;95165.69;;;20.56;30.63
48035;BME280;33812;46.480;6.834;2023-02-03T07:10:18;95164.47;;;20.64;31.50
48035;BME280;33812;46.480;6.834;2023-02-03T07:14:20;95166.44;;;20.67;31.85
48035;BME280;33812;46.480;6.834;2023-02-03T07:18:22;95169.97;;;20.71;32.06
48035;BME280;33812;46.480;6.834;2023-02-03T07:22:25;95163.25;;;20.72;32.63
48035;BME280;33812;46.480;6.834;2023-02-03T07:26:29;95145.09;;;20.75;32.91
48035;BME280;33812;46.480;6.834;2023-02-03T07:30:31;95143.47;;;20.77;33.13
48035;BME280;33812;46.480;6.834;2023-02-03T07:34:34;95150.59;;;20.78;33.31
48035;BME280;33812;46.480;6.834;2023-02-03T07:38:36;95158.50;;;20.76;33.82
48035;BME280;33812;46.480;6.834;2023-02-03T07:42:41;95160.84;;;20.82;34.20
48035;BME280;33812;46.480;6.834;2023-02-03T07:46:43;95151.34;;;20.83;34.39
48035;BME280;33812;46.480;6.834;2023-02-03T07:50:46;95172.28;;;20.84;34.73
48035;BME280;33812;46.480;6.834;2023-02-03T07:54:50;95187.69;;;20.81;33.73
48035;BME280;33812;46.480;6.834;2023-02-03T07:58:54;95189.66;;;20.81;33.73
48035;BME280;33812;46.480;6.834;2023-02-03T08:02:56;95207.44;;;20.80;33.50
48035;BME280;33812;46.480;6.834;2023-02-03T08:06:58;95194.78;;;20.82;33.20
48035;BME280;33812;46.480;6.834;2023-02-03T08:11:01;95191.66;;;20.80;33.36
48035;BME280;33812;46.480;6.834;2023-02-03T08:15:06;95189.66;;;20.81;33.78
48035;BME280;33812;46.480;6.834;2023-02-03T08:19:08;95189.66;;;20.81;33.79
48035;BME280;33812;46.480;6.834;2023-02-03T08:23:10;95192.81;;;20.79;33.52
48035;BME280;33812;46.480;6.834;2023-02-03T08:27:13;95207.03;;;20.81;33.57
48035;BME280;33812;46.480;6.834;2023-02-03T08:31:16;95220.03;;;20.81;33.95
48035;BME280;33812;46.480;6.834;2023-02-03T08:35:19;95205.81;;;20.82;33.54
48035;BME280;33812;46.480;6.834;2023-02-03T08:39:22;95201.88;;;20.83;33.28
48035;BME280;33812;46.480;6.834;2023-02-03T08:43:24;95214.13;;;20.82;33.22
48035;BME280;33812;46.480;6.834;2023-02-03T08:47:28;95235.84;;;20.84;33.43
48035;BME280;33812;46.480;6.834;2023-02-03T08:51:30;95231.88;;;20.85;33.10
48035;BME280;33812;46.480;6.834;2023-02-03T08:55:32;95221.63;;;20.85;33.39
48035;BME280;33812;46.480;6.834;2023-02-03T08:59:34;95232.66;;;20.89;33.38
48035;BME280;33812;46.480;6.834;2023-02-03T09:03:39;95232.66;;;20.89;33.65
48035;BME280;33812;46.480;6.834;2023-02-03T09:07:41;95248.03;;;20.90;33.71
48035;BME280;33812;46.480;6.834;2023-02-03T09:11:43;95233.81;;;20.92;33.63
48035;BME280;33812;46.480;6.834;2023-02-03T09:15:44;95252.75;;;20.93;33.59
48035;BME280;33812;46.480;6.834;2023-02-03T09:19:47;95250.00;;;20.93;33.19
48035;BME280;33812;46.480;6.834;2023-02-03T09:23:49;95241.72;;;20.93;33.09
48035;BME280;33812;46.480;6.834;2023-02-03T09:27:51;95242.94;;;20.96;33.01
48035;BME280;33812;46.480;6.834;2023-02-03T09:31:53;95242.13;;;20.95;33.07
48035;BME280;33812;46.480;6.834;2023-02-03T09:35:57;95239.75;;;20.97;32.92
48035;BME280;33812;46.480;6.834;2023-02-03T09:39:59;95240.91;;;21.00;32.91
48035;BME280;33812;46.480;6.834;2023-02-03T09:44:04;95238.16;;;21.00;33.17
48035;BME280;33812;46.480;6.834;2023-02-03T09:48:14;95243.69;;;21.00;33.11
48035;BME280;33812;46.480;6.834;2023-02-03T09:52:19;95244.47;;;21.00;33.26
48035;BME280;33812;46.480;6.834;2023-02-03T09:56:26;95244.47;;;21.00;33.05
48035;BME280;33812;46.480;6.834;2023-02-03T10:00:34;95240.50;;;21.01;32.92
48035;BME280;33812;46.480;6.834;2023-02-03T10:04:38;95235.78;;;21.02;32.96
48035;BME280;33812;46.480;6.834;2023-02-03T10:09:03;95235.00;;;21.01;32.45
48035;BME280;33812;46.480;6.834;2023-02-03T10:13:17;95226.69;;;21.01;32.20
48035;BME280;33812;46.480;6.834;2023-02-03T10:17:28;95232.63;;;21.04;32.11
48035;BME280;33812;46.480;6.834;2023-02-03T10:21:34;95227.91;;;21.00;32.18
48035;BME280;33812;46.480;6.834;2023-02-03T10:25:41;95233.00;;;21.06;32.13
48035;BME280;33812;46.480;6.834;2023-02-03T10:29:43;95220.75;;;21.07;32.18
48035;BME280;33812;46.480;6.834;2023-02-03T10:33:46;95216.00;;;21.07;32.28
48035;BME280;33812;46.480;6.834;2023-02-03T10:37:50;95217.19;;;21.10;32.48
48035;BME280;33812;46.480;6.834;2023-02-03T10:41:55;95212.44;;;21.10;32.77
48035;BME280;33812;46.480;6.834;2023-02-03T10:45:57;95207.31;;;21.12;32.97
48035;BME280;33812;46.480;6.834;2023-02-03T10:50:04;95196.63;;;21.14;33.27
48035;BME280;33812;46.480;6.834;2023-02-03T10:54:25;95185.16;;;21.20;32.80
48035;BME280;33812;46.480;6.834;2023-02-03T10:58:31;95187.50;;;21.21;33.69
48035;BME280;33812;46.480;6.834;2023-02-03T11:02:35;95179.59;;;21.27;34.60
48035;BME280;33812;46.480;6.834;2023-02-03T11:06:52;95169.31;;;21.28;34.21
48035;BME280;33812;46.480;6.834;2023-02-03T11:11:01;95168.91;;;21.29;35.04
48035;BME280;33812;46.480;6.834;2023-02-03T11:15:05;95170.06;;;21.32;35.06
48035;BME280;33812;46.480;6.834;2023-02-03T11:19:14;95164.91;;;21.34;34.98
48035;BME280;33812;46.480;6.834;2023-02-03T11:23:19;95180.28;;;21.38;34.85
48035;BME280;33812;46.480;6.834;2023-02-03T11:27:21;95167.25;;;21.39;35.35
48035;BME280;33812;46.480;6.834;2023-02-03T11:31:27;95172.78;;;21.39;35.87
48035;BME280;33812;46.480;6.834;2023-02-03T11:35:31;95182.66;;;21.40;36.01
48035;BME280;33812;46.480;6.834;2023-02-03T11:39:33;95170.78;;;21.43;36.47
48035;BME280;33812;46.480;6.834;2023-02-03T11:43:36;95163.25;;;21.47;36.07
48035;BME280;33812;46.480;6.834;2023-02-03T11:47:43;95159.69;;;21.47;36.54
48035;BME280;33812;46.480;6.834;2023-02-03T11:51:51;95145.09;;;21.46;36.67
48035;BME280;33812;46.480;6.834;2023-02-03T11:56:15;95158.50;;;21.48;36.50
48035;BME280;33812;46.480;6.834;2023-02-03T12:00:25;95160.03;;;21.53;36.90
48035;BME280;33812;46.480;6.834;2023-02-03T12:04:51;95150.56;;;21.54;36.26
48035;BME280;33812;46.480;6.834;2023-02-03T12:09:14;95149.44;;;21.44;33.57
48035;BME280;33812;46.480;6.834;2023-02-03T12:13:35;95136.28;;;21.59;37.92
48035;BME280;33812;46.480;6.834;2023-02-03T12:17:50;95129.56;;;21.60;37.49
48035;BME280;33812;46.480;6.834;2023-02-03T12:22:05;95129.50;;;21.67;38.18
48035;BME280;33812;46.480;6.834;2023-02-03T12:26:17;95131.81;;;21.72;38.51
48035;BME280;33812;46.480;6.834;2023-02-03T12:30:24;95130.25;;;21.71;36.86
48035;BME280;33812;46.480;6.834;2023-02-03T12:34:31;95119.97;;;21.72;37.26
48035;BME280;33812;46.480;6.834;2023-02-03T12:38:40;95121.22;;;21.64;36.65
48035;BME280;33812;46.480;6.834;2023-02-03T12:42:49;95104.63;;;21.64;37.01
48035;BME280;33812;46.480;6.834;2023-02-03T12:46:56;95105.03;;;21.62;37.13
48035;BME280;33812;46.480;6.834;2023-02-03T12:51:04;95112.97;;;21.60;37.59
48035;BME280;33812;46.480;6.834;2023-02-03T12:55:21;95109.38;;;21.63;37.59
48035;BME280;33812;46.480;6.834;2023-02-03T12:59:24;95099.91;;;21.60;37.22
48035;BME280;33812;46.480;6.834;2023-02-03T13:03:35;95089.72;;;21.54;36.45
48035;BME280;33812;46.480;6.834;2023-02-03T13:07:42;95092.50;;;21.50;36.65
48035;BME280;33812;46.480;6.834;2023-02-03T13:11:53;95086.97;;;21.50;36.54
48035;BME280;33812;46.480;6.834;2023-02-03T13:15:58;95084.19;;;21.50;36.43
48035;BME280;33812;46.480;6.834;2023-02-03T13:20:04;95070.78;;;21.48;36.38
48035;BME280;33812;46.480;6.834;2023-02-03T13:24:11;95059.72;;;21.48;36.00
48035;BME280;33812;46.480;6.834;2023-02-03T13:28:21;95069.16;;;21.51;35.90
48035;BME280;33812;46.480;6.834;2023-02-03T13:32:40;95070.38;;;21.50;35.98
48035;BME280;33812;46.480;6.834;2023-02-03T13:41:23;95058.91;;;21.52;35.64
48035;BME280;33812;46.480;6.834;2023-02-03T13:45:32;95057.69;;;21.53;35.58
48035;BME280;33812;46.480;6.834;2023-02-03T13:49:35;95071.53;;;21.53;35.71
48035;BME280;33812;46.480;6.834;2023-02-03T13:53:39;95084.59;;;21.52;35.68
48035;BME280;33812;46.480;6.834;2023-02-03T13:57:41;95072.72;;;21.52;35.39
48035;BME280;33812;46.480;6.834;2023-02-03T14:01:45;95052.16;;;21.53;35.32
48035;BME280;33812;46.480;6.834;2023-02-03T14:05:47;95049.41;;;21.53;35.07
48035;BME280;33812;46.480;6.834;2023-02-03T14:10:12;95052.94;;;21.53;35.04
48035;BME280;33812;46.480;6.834;2023-02-03T14:14:58;95064.41;;;21.55;34.93
48035;BME280;33812;46.480;6.834;2023-02-03T14:19:08;95075.47;;;21.55;34.88
48035;BME280;33812;46.480;6.834;2023-02-03T14:23:14;95069.13;;;21.55;34.88
48035;BME280;33812;46.480;6.834;2023-02-03T14:27:19;95065.16;;;21.56;34.88
48035;BME280;33812;46.480;6.834;2023-02-03T14:31:23;95074.66;;;21.55;34.89
48035;BME280;33812;46.480;6.834;2023-02-03T14:35:31;95067.94;;;21.56;34.72
48035;BME280;33812;46.480;6.834;2023-02-03T14:40:22;95075.06;;;21.57;34.41
48035;BME280;33812;46.480;6.834;2023-02-03T14:44:34;95075.84;;;21.57;34.49
48035;BME280;33812;46.480;6.834;2023-02-03T14:48:47;95077.81;;;21.57;34.34
48035;BME280;33812;46.480;6.834;2023-02-03T14:53:11;95059.25;;;21.57;34.22
48035;BME280;33812;46.480;6.834;2023-02-03T14:57:29;95043.41;;;21.58;33.95
48035;BME280;33812;46.480;6.834;2023-02-03T15:02:08;95041.03;;;21.60;34.08
48035;BME280;33812;46.480;6.834;2023-02-03T15:06:37;95042.25;;;21.59;34.11
48035;BME280;33812;46.480;6.834;2023-02-03T15:10:42;95028.41;;;21.59;33.87
48035;BME280;33812;46.480;6.834;2023-02-03T15:14:45;95034.72;;;21.59;33.64
48035;BME280;33812;46.480;6.834;2023-02-03T15:18:53;95024.44;;;21.60;33.86
48035;BME280;33812;46.480;6.834;2023-02-03T15:22:56;95024.44;;;21.60;33.85
48035;BME280;33812;46.480;6.834;2023-02-03T15:26:59;95022.47;;;21.60;33.67
48035;BME280;33812;46.480;6.834;2023-02-03T15:31:04;95020.50;;;21.61;33.68
48035;BME280;33812;46.480;6.834;2023-02-03T15:35:11;95018.91;;;21.60;33.53
48035;BME280;33812;46.480;6.834;2023-02-03T15:39:22;95012.19;;;21.61;33.53
48035;BME280;33812;46.480;6.834;2023-02-03T15:43:32;95010.19;;;21.61;33.38
48035;BME280;33812;46.480;6.834;2023-02-03T15:47:37;95013.75;;;21.62;33.25
48035;BME280;33812;46.480;6.834;2023-02-03T15:51:43;95032.31;;;21.61;33.25
48035;BME280;33812;46.480;6.834;2023-02-03T15:55:48;95023.25;;;21.61;33.12
48035;BME280;33812;46.480;6.834;2023-02-03T15:59:55;95021.66;;;21.60;33.13
48035;BME280;33812;46.480;6.834;2023-02-03T16:03:58;95024.44;;;21.60;33.07
48035;BME280;33812;46.480;6.834;2023-02-03T16:08:34;95027.63;;;21.58;33.04
48035;BME280;33812;46.480;6.834;2023-02-03T16:12:36;95042.25;;;21.59;32.95
48035;BME280;33812;46.480;6.834;2023-02-03T16:16:47;95043.41;;;21.58;32.81
48035;BME280;33812;46.480;6.834;2023-02-03T16:20:51;95042.25;;;21.59;32.77
48035;BME280;33812;46.480;6.834;2023-02-03T16:24:53;95047.38;;;21.57;32.77
48035;BME280;33812;46.480;6.834;2023-02-03T16:29:12;95062.78;;;21.58;32.57
48035;BME280;33812;46.480;6.834;2023-02-03T16:33:33;95065.53;;;21.58;32.29
48035;BME280;33812;46.480;6.834;2023-02-03T16:37:52;95055.28;;;21.58;32.43
48035;BME280;33812;46.480;6.834;2023-02-03T16:42:15;95058.03;;;21.58;32.74
48035;BME280;33812;46.480;6.834;2023-02-03T16:46:34;95071.47;;;21.60;32.95
48035;BME280;33812;46.480;6.834;2023-02-03T16:50:55;95078.59;;;21.61;33.74
48035;BME280;33812;46.480;6.834;2023-02-03T16:54:58;95074.63;;;21.62;33.55
48035;BME280;33812;46.480;6.834;2023-02-03T16:58:59;95071.84;;;21.62;33.61
48035;BME280;33812;46.480;6.834;2023-02-03T17:03:02;95078.16;;;21.62;33.38
48035;BME280;33812;46.480;6.834;2023-02-03T17:07:06;95087.66;;;21.61;32.85
48035;BME280;33812;46.480;6.834;2023-02-03T17:11:12;95094.38;;;21.60;33.11
48035;BME280;33812;46.480;6.834;2023-02-03T17:15:16;95093.19;;;21.61;33.79
48035;BME280;33812;46.480;6.834;2023-02-03T17:19:17;95099.50;;;21.62;34.65
48035;BME280;33812;46.480;6.834;2023-02-03T17:23:20;95092.78;;;21.63;34.39
48035;BME280;33812;46.480;6.834;2023-02-03T17:27:22;95094.78;;;21.62;34.33
48035;BME280;33812;46.480;6.834;2023-02-03T17:31:24;95105.03;;;21.62;34.33
48035;BME280;33812;46.480;6.834;2023-02-03T17:35:26;95100.72;;;21.61;33.99
48035;BME280;33812;46.480;6.834;2023-02-03T17:39:29;95105.09;;;21.55;33.57
48035;BME280;33812;46.480;6.834;2023-02-03T17:43:31;95102.72;;;21.57;32.91
48035;BME280;33812;46.480;6.834;2023-02-03T17:47:32;95097.56;;;21.59;33.08
48035;BME280;33812;46.480;6.834;2023-02-03T17:51:35;95105.88;;;21.59;32.96
48035;BME280;33812;46.480;6.834;2023-02-03T17:55:54;95122.06;;;21.60;33.46
48035;BME280;33812;46.480;6.834;2023-02-03T17:59:55;95116.94;;;21.59;33.87
48035;BME280;33812;46.480;6.834;2023-02-03T18:04:01;95098.34;;;21.59;33.97
48035;BME280;33812;46.480;6.834;2023-02-03T18:08:04;95109.00;;;21.61;34.25
48035;BME280;33812;46.480;6.834;2023-02-03T18:12:12;95110.56;;;21.62;34.70
48035;BME280;33812;46.480;6.834;2023-02-03T18:16:17;95101.06;;;21.63;34.90
48035;BME280;33812;46.480;6.834;2023-02-03T18:20:30;95108.19;;;21.64;35.19
48035;BME280;33812;46.480;6.834;2023-02-03T18:24:39;95105.44;;;21.64;35.40
48035;BME280;33812;46.480;6.834;2023-02-03T18:28:45;95100.72;;;21.61;35.44
48035;BME280;33812;46.480;6.834;2023-02-03T18:32:50;95114.09;;;21.66;35.54
48035;BME280;33812;46.480;6.834;2023-02-03T18:36:52;95112.91;;;21.67;35.72
48035;BME280;33812;46.480;6.834;2023-02-03T18:40:55;95105.44;;;21.60;36.11
48035;BME280;33812;46.480;6.834;2023-02-03T18:44:58;95095.19;;;21.61;36.02
48035;BME280;33812;46.480;6.834;2023-02-03T18:49:09;95087.22;;;21.63;35.71
48035;BME280;33812;46.480;6.834;2023-02-03T18:53:12;95085.69;;;21.62;36.10
48035;BME280;33812;46.480;6.834;2023-02-03T18:57:14;95100.72;;;21.61;35.96
48035;BME280;33812;46.480;6.834;2023-02-03T19:01:21;95102.25;;;21.66;36.13
48035;BME280;33812;46.480;6.834;2023-02-03T19:05:24;95094.75;;;21.66;35.48
48035;BME280;33812;46.480;6.834;2023-02-03T19:09:25;95101.03;;;21.67;35.02
48035;BME280;33812;46.480;6.834;2023-02-03T19:13:27;95098.69;;;21.65;35.81
48035;BME280;33812;46.480;6.834;2023-02-03T19:17:31;95105.00;;;21.66;35.65
48035;BME280;33812;46.480;6.834;2023-02-03T19:21:34;95101.41;;;21.69;36.86
48035;BME280;33812;46.480;6.834;2023-02-03T19:25:36;95103.81;;;21.67;37.08
48035;BME280;33812;46.480;6.834;2023-02-03T19:29:38;95096.31;;;21.67;37.70
48035;BME280;33812;46.480;6.834;2023-02-03T19:33:41;95092.75;;;21.67;37.48
48035;BME280;33812;46.480;6.834;2023-02-03T19:37:43;95084.84;;;21.65;37.82
48035;BME280;33812;46.480;6.834;2023-02-03T19:41:46;95076.53;;;21.69;38.29
48035;BME280;33812;46.480;6.834;2023-02-03T19:49:51;95079.28;;;21.69;38.41
48035;BME280;33812;46.480;6.834;2023-02-03T19:53:52;95081.25;;;21.68;38.33
48035;BME280;33812;46.480;6.834;2023-02-03T19:57:54;95082.84;;;21.69;38.17
48035;BME280;33812;46.480;6.834;2023-02-03T20:01:56;95084.41;;;21.70;38.34
48035;BME280;33812;46.480;6.834;2023-02-03T20:05:59;95089.16;;;21.70;37.13
48035;BME280;33812;46.480;6.834;2023-02-03T20:10:01;95090.75;;;21.67;37.16
48035;BME280;33812;46.480;6.834;2023-02-03T20:14:03;95095.91;;;21.65;37.44
48035;BME280;33812;46.480;6.834;2023-02-03T20:18:05;95101.06;;;21.63;36.79
48035;BME280;33812;46.480;6.834;2023-02-03T20:22:08;95100.66;;;21.65;36.38
48035;BME280;33812;46.480;6.834;2023-02-03T20:26:10;95087.22;;;21.63;36.25
48035;BME280;33812;46.480;6.834;2023-02-03T20:30:12;95095.91;;;21.65;36.21
48035;BME280;33812;46.480;6.834;2023-02-03T20:34:14;95094.78;;;21.62;36.10
48035;BME280;33812;46.480;6.834;2023-02-03T20:38:17;95095.53;;;21.63;36.11
48035;BME280;33812;46.480;6.834;2023-02-03T20:42:19;95098.72;;;21.61;36.10
48035;BME280;33812;46.480;6.834;2023-02-03T20:46:21;95098.72;;;21.61;36.34
48035;BME280;33812;46.480;6.834;2023-02-03T20:50:23;95106.59;;;21.63;35.99
48035;BME280;33812;46.480;6.834;2023-02-03T20:54:27;95100.31;;;21.62;36.08
48035;BME280;33812;46.480;6.834;2023-02-03T20:58:33;95095.53;;;21.63;35.96
48035;BME280;33812;46.480;6.834;2023-02-03T21:02:36;95104.22;;;21.65;36.13
48035;BME280;33812;46.480;6.834;2023-02-03T21:06:52;95113.34;;;21.62;36.25
48035;BME280;33812;46.480;6.834;2023-02-03T21:10:56;95110.56;;;21.62;36.00
48035;BME280;33812;46.480;6.834;2023-02-03T21:14:58;95116.09;;;21.62;36.00
48035;BME280;33812;46.480;6.834;2023-02-03T21:19:00;95113.34;;;21.62;35.93
48035;BME280;33812;46.480;6.834;2023-02-03T21:23:05;95105.03;;;21.62;35.82
48035;BME280;33812;46.480;6.834;2023-02-03T21:27:22;95104.28;;;21.58;35.61
48035;BME280;33812;46.480;6.834;2023-02-03T21:31:25;95108.22;;;21.60;35.63
48035;BME280;33812;46.480;6.834;2023-02-03T21:35:30;95095.97;;;21.58;35.51
48035;BME280;33812;46.480;6.834;2023-02-03T21:39:34;95093.22;;;21.58;35.60
48035;BME280;33812;46.480;6.834;2023-02-03T21:43:37;95094.00;;;21.58;35.61
48035;BME280;33812;46.480;6.834;2023-02-03T21:47:39;95105.06;;;21.58;35.38
48035;BME280;33812;46.480;6.834;2023-02-03T21:51:43;95098.75;;;21.58;35.43
48035;BME280;33812;46.480;6.834;2023-02-03T21:55:44;95106.28;;;21.57;35.52
48035;BME280;33812;46.480;6.834;2023-02-03T21:59:47;95111.41;;;21.59;35.51